sensor_id;sensor_type;location;lat;lon;timestamp;P1;durP1;ratioP1;P2;durP2;ratioP2
28625;SDS011;18905;42.668;23.364;2023-09-18T00:00:21;30.13;;;22.88;;
28625;SDS011;18905;42.668;23.364;2023-09-18T00:02:47;30.67;;;23.63;;
28625;SDS011;18905;42.668;23.364;2023-09-18T00:05:12;31.60;;;24.17;;
28625;SDS011;18905;42.668;23.364;2023-09-18T00:07:40;31.92;;;24.70;;
28625;SDS011;18905;42.668;23.364;2023-09-18T00:10:10;30.38;;;24.20;;
28625;SDS011;18905;42.668;23.364;2023-09-18T00:12:36;33.78;;;25.02;;
28625;SDS011;18905;42.668;23.364;2023-09-18T00:15:02;30.75;;;24.25;;
28625;SDS011;18905;42.668;23.364;2023-09-18T00:17:29;35.60;;;25.77;;
28625;SDS011;18905;42.668;23.364;2023-09-18T00:19:54;31.55;;;25.85;;
28625;SDS011;18905;42.668;23.364;2023-09-18T00:22:20;34.60;;;25.63;;
28625;SDS011;18905;42.668;23.364;2023-09-18T00:24:46;36.63;;;25.70;;
28625;SDS011;18905;42.668;23.364;2023-09-18T00:27:11;39.55;;;26.52;;
28625;SDS011;18905;42.668;23.364;2023-09-18T00:29:36;35.47;;;24.70;;
28625;SDS011;18905;42.668;23.364;2023-09-18T00:32:02;38.25;;;24.90;;
28625;SDS011;18905;42.668;23.364;2023-09-18T00:34:29;35.50;;;25.30;;
28625;SDS011;18905;42.668;23.364;2023-09-18T00:36:54;40.70;;;25.67;;
28625;SDS011;18905;42.668;23.364;2023-09-18T00:39:20;35.70;;;25.67;;
28625;SDS011;18905;42.668;23.364;2023-09-18T00:41:45;35.75;;;27.55;;
28625;SDS011;18905;42.668;23.364;2023-09-18T00:44:14;37.05;;;26.48;;
28625;SDS011;18905;42.668;23.364;2023-09-18T00:46:39;38.83;;;25.95;;
28625;SDS011;18905;42.668;23.364;2023-09-18T00:49:05;34.25;;;25.73;;
28625;SDS011;18905;42.668;23.364;2023-09-18T00:51:31;37.42;;;25.98;;
28625;SDS011;18905;42.668;23.364;2023-09-18T00:53:57;33.90;;;24.73;;
28625;SDS011;18905;42.668;23.364;2023-09-18T00:56:24;40.92;;;26.20;;
28625;SDS011;18905;42.668;23.364;2023-09-18T00:58:49;33.40;;;24.33;;
28625;SDS011;18905;42.668;23.364;2023-09-18T01:01:16;31.48;;;25.10;;
28625;SDS011;18905;42.668;23.364;2023-09-18T01:03:47;31.90;;;24.85;;
28625;SDS011;18905;42.668;23.364;2023-09-18T01:06:14;30.20;;;23.83;;
28625;SDS011;18905;42.668;23.364;2023-09-18T01:08:40;32.30;;;24.13;;
28625;SDS011;18905;42.668;23.364;2023-09-18T01:11:18;28.10;;;22.45;;
28625;SDS011;18905;42.668;23.364;2023-09-18T01:13:54;30.02;;;22.15;;
28625;SDS011;18905;42.668;23.364;2023-09-18T01:16:27;25.83;;;19.40;;
28625;SDS011;18905;42.668;23.364;2023-09-18T01:18:59;27.98;;;18.77;;
28625;SDS011;18905;42.668;23.364;2023-09-18T01:21:28;27.20;;;19.13;;
28625;SDS011;18905;42.668;23.364;2023-09-18T01:23:53;24.58;;;18.30;;
28625;SDS011;18905;42.668;23.364;2023-09-18T01:26:18;20.92;;;17.75;;
28625;SDS011;18905;42.668;23.364;2023-09-18T01:28:44;26.90;;;17.58;;
28625;SDS011;18905;42.668;23.364;2023-09-18T01:31:09;23.60;;;17.10;;
28625;SDS011;18905;42.668;23.364;2023-09-18T01:33:34;26.38;;;17.50;;
28625;SDS011;18905;42.668;23.364;2023-09-18T01:36:03;23.95;;;17.70;;
28625;SDS011;18905;42.668;23.364;2023-09-18T01:38:32;24.27;;;17.33;;
28625;SDS011;18905;42.668;23.364;2023-09-18T01:40:58;27.77;;;17.75;;
28625;SDS011;18905;42.668;23.364;2023-09-18T01:43:24;28.25;;;16.65;;
28625;SDS011;18905;42.668;23.364;2023-09-18T01:45:49;26.75;;;17.83;;
28625;SDS011;18905;42.668;23.364;2023-09-18T01:48:15;23.92;;;17.45;;
28625;SDS011;18905;42.668;23.364;2023-09-18T01:50:41;22.25;;;18.00;;
28625;SDS011;18905;42.668;23.364;2023-09-18T01:53:06;26.58;;;18.65;;
28625;SDS011;18905;42.668;23.364;2023-09-18T01:55:32;24.35;;;17.85;;
28625;SDS011;18905;42.668;23.364;2023-09-18T01:57:58;25.92;;;17.80;;
28625;SDS011;18905;42.668;23.364;2023-09-18T02:00:23;25.27;;;18.73;;
28625;SDS011;18905;42.668;23.364;2023-09-18T02:02:49;24.83;;;17.70;;
28625;SDS011;18905;42.668;23.364;2023-09-18T02:05:14;28.00;;;18.23;;
28625;SDS011;18905;42.668;23.364;2023-09-18T02:07:40;31.05;;;18.92;;
28625;SDS011;18905;42.668;23.364;2023-09-18T02:10:05;29.58;;;19.40;;
28625;SDS011;18905;42.668;23.364;2023-09-18T02:12:31;27.10;;;20.20;;
28625;SDS011;18905;42.668;23.364;2023-09-18T02:14:57;27.75;;;18.95;;
28625;SDS011;18905;42.668;23.364;2023-09-18T02:17:23;27.05;;;20.33;;
28625;SDS011;18905;42.668;23.364;2023-09-18T02:19:49;28.08;;;18.70;;
28625;SDS011;18905;42.668;23.364;2023-09-18T02:22:15;27.90;;;20.10;;
28625;SDS011;18905;42.668;23.364;2023-09-18T02:24:40;37.53;;;21.42;;
28625;SDS011;18905;42.668;23.364;2023-09-18T02:27:05;26.45;;;18.63;;
28625;SDS011;18905;42.668;23.364;2023-09-18T02:29:31;29.13;;;19.45;;
28625;SDS011;18905;42.668;23.364;2023-09-18T02:31:56;29.20;;;17.92;;
28625;SDS011;18905;42.668;23.364;2023-09-18T02:34:22;25.58;;;18.45;;
28625;SDS011;18905;42.668;23.364;2023-09-18T02:36:47;25.23;;;19.35;;
28625;SDS011;18905;42.668;23.364;2023-09-18T02:39:12;22.60;;;16.55;;
28625;SDS011;18905;42.668;23.364;2023-09-18T02:41:38;21.70;;;16.48;;
28625;SDS011;18905;42.668;23.364;2023-09-18T02:44:03;24.42;;;16.13;;
28625;SDS011;18905;42.668;23.364;2023-09-18T02:46:29;22.67;;;16.27;;
28625;SDS011;18905;42.668;23.364;2023-09-18T02:48:55;22.73;;;16.35;;
28625;SDS011;18905;42.668;23.364;2023-09-18T02:51:20;23.13;;;16.35;;
28625;SDS011;18905;42.668;23.364;2023-09-18T02:53:45;23.48;;;14.02;;
28625;SDS011;18905;42.668;23.364;2023-09-18T02:56:11;24.33;;;15.82;;
28625;SDS011;18905;42.668;23.364;2023-09-18T02:58:37;20.60;;;15.23;;
28625;SDS011;18905;42.668;23.364;2023-09-18T03:01:02;29.58;;;17.17;;
28625;SDS011;18905;42.668;23.364;2023-09-18T03:03:30;25.65;;;16.40;;
28625;SDS011;18905;42.668;23.364;2023-09-18T03:06:00;26.00;;;17.05;;
28625;SDS011;18905;42.668;23.364;2023-09-18T03:08:27;25.40;;;16.80;;
28625;SDS011;18905;42.668;23.364;2023-09-18T03:10:53;23.40;;;16.10;;
28625;SDS011;18905;42.668;23.364;2023-09-18T03:13:19;24.20;;;17.38;;
28625;SDS011;18905;42.668;23.364;2023-09-18T03:15:45;23.92;;;16.40;;
28625;SDS011;18905;42.668;23.364;2023-09-18T03:18:13;22.02;;;16.50;;
28625;SDS011;18905;42.668;23.364;2023-09-18T03:20:39;26.08;;;17.15;;
28625;SDS011;18905;42.668;23.364;2023-09-18T03:23:05;24.88;;;16.77;;
28625;SDS011;18905;42.668;23.364;2023-09-18T03:25:30;23.10;;;16.30;;
28625;SDS011;18905;42.668;23.364;2023-09-18T03:27:56;23.02;;;16.55;;
28625;SDS011;18905;42.668;23.364;2023-09-18T03:30:22;28.75;;;17.40;;
28625;SDS011;18905;42.668;23.364;2023-09-18T03:32:49;25.42;;;17.55;;
28625;SDS011;18905;42.668;23.364;2023-09-18T03:35:16;29.20;;;17.80;;
28625;SDS011;18905;42.668;23.364;2023-09-18T03:37:47;28.35;;;18.88;;
28625;SDS011;18905;42.668;23.364;2023-09-18T03:40:14;29.20;;;18.92;;
28625;SDS011;18905;42.668;23.364;2023-09-18T03:42:40;28.45;;;19.27;;
28625;SDS011;18905;42.668;23.364;2023-09-18T03:45:06;27.77;;;20.88;;
28625;SDS011;18905;42.668;23.364;2023-09-18T03:47:34;29.92;;;19.50;;
28625;SDS011;18905;42.668;23.364;2023-09-18T03:50:01;32.40;;;20.38;;
28625;SDS011;18905;42.668;23.364;2023-09-18T03:52:27;26.98;;;19.33;;
28625;SDS011;18905;42.668;23.364;2023-09-18T03:54:52;32.50;;;19.10;;
28625;SDS011;18905;42.668;23.364;2023-09-18T03:57:18;31.27;;;19.95;;
28625;SDS011;18905;42.668;23.364;2023-09-18T03:59:43;31.90;;;20.17;;
28625;SDS011;18905;42.668;23.364;2023-09-18T04:02:08;31.40;;;20.98;;
28625;SDS011;18905;42.668;23.364;2023-09-18T04:04:34;31.88;;;20.27;;
28625;SDS011;18905;42.668;23.364;2023-09-18T04:06:59;32.65;;;21.52;;
28625;SDS011;18905;42.668;23.364;2023-09-18T04:09:24;36.80;;;22.23;;
28625;SDS011;18905;42.668;23.364;2023-09-18T04:11:50;32.13;;;22.55;;
28625;SDS011;18905;42.668;23.364;2023-09-18T04:14:15;33.67;;;22.25;;
28625;SDS011;18905;42.668;23.364;2023-09-18T04:16:41;28.85;;;20.42;;
28625;SDS011;18905;42.668;23.364;2023-09-18T04:19:08;34.90;;;21.13;;
28625;SDS011;18905;42.668;23.364;2023-09-18T04:21:34;34.42;;;21.98;;
28625;SDS011;18905;42.668;23.364;2023-09-18T04:24:00;37.00;;;22.17;;
28625;SDS011;18905;42.668;23.364;2023-09-18T04:26:26;34.45;;;21.92;;
28625;SDS011;18905;42.668;23.364;2023-09-18T04:29:01;36.40;;;22.17;;
28625;SDS011;18905;42.668;23.364;2023-09-18T04:31:27;35.53;;;20.40;;
28625;SDS011;18905;42.668;23.364;2023-09-18T04:33:53;27.98;;;19.90;;
28625;SDS011;18905;42.668;23.364;2023-09-18T04:36:19;32.08;;;21.02;;
28625;SDS011;18905;42.668;23.364;2023-09-18T04:38:44;28.98;;;19.60;;
28625;SDS011;18905;42.668;23.364;2023-09-18T04:41:09;35.53;;;19.48;;
28625;SDS011;18905;42.668;23.364;2023-09-18T04:43:39;32.72;;;19.00;;
28625;SDS011;18905;42.668;23.364;2023-09-18T04:46:05;35.35;;;19.98;;
28625;SDS011;18905;42.668;23.364;2023-09-18T04:48:31;35.40;;;19.40;;
28625;SDS011;18905;42.668;23.364;2023-09-18T04:50:57;33.15;;;19.08;;
28625;SDS011;18905;42.668;23.364;2023-09-18T04:53:23;32.72;;;20.00;;
28625;SDS011;18905;42.668;23.364;2023-09-18T04:55:49;28.50;;;19.58;;
28625;SDS011;18905;42.668;23.364;2023-09-18T04:58:15;32.63;;;20.00;;
28625;SDS011;18905;42.668;23.364;2023-09-18T05:00:41;31.90;;;19.92;;
28625;SDS011;18905;42.668;23.364;2023-09-18T05:03:07;31.42;;;20.10;;
28625;SDS011;18905;42.668;23.364;2023-09-18T05:05:36;30.70;;;20.02;;
28625;SDS011;18905;42.668;23.364;2023-09-18T05:08:02;31.27;;;20.73;;
28625;SDS011;18905;42.668;23.364;2023-09-18T05:10:32;29.80;;;20.38;;
28625;SDS011;18905;42.668;23.364;2023-09-18T05:12:58;30.52;;;19.83;;
28625;SDS011;18905;42.668;23.364;2023-09-18T05:15:24;31.38;;;20.80;;
28625;SDS011;18905;42.668;23.364;2023-09-18T05:17:51;31.40;;;20.23;;
28625;SDS011;18905;42.668;23.364;2023-09-18T05:20:21;25.70;;;19.85;;
28625;SDS011;18905;42.668;23.364;2023-09-18T05:22:49;31.02;;;20.23;;
28625;SDS011;18905;42.668;23.364;2023-09-18T05:25:15;29.40;;;20.08;;
28625;SDS011;18905;42.668;23.364;2023-09-18T05:27:40;33.90;;;20.42;;
28625;SDS011;18905;42.668;23.364;2023-09-18T05:30:14;41.50;;;21.33;;
28625;SDS011;18905;42.668;23.364;2023-09-18T05:32:41;30.58;;;20.67;;
28625;SDS011;18905;42.668;23.364;2023-09-18T05:35:08;30.95;;;19.10;;
28625;SDS011;18905;42.668;23.364;2023-09-18T05:37:36;32.08;;;20.67;;
28625;SDS011;18905;42.668;23.364;2023-09-18T05:40:04;37.20;;;22.55;;
28625;SDS011;18905;42.668;23.364;2023-09-18T05:42:32;33.50;;;20.60;;
28625;SDS011;18905;42.668;23.364;2023-09-18T05:44:57;33.70;;;20.88;;
28625;SDS011;18905;42.668;23.364;2023-09-18T05:47:23;27.38;;;21.27;;
28625;SDS011;18905;42.668;23.364;2023-09-18T05:49:49;31.15;;;22.45;;
28625;SDS011;18905;42.668;23.364;2023-09-18T05:52:14;31.02;;;20.25;;
28625;SDS011;18905;42.668;23.364;2023-09-18T05:54:40;31.63;;;19.55;;
28625;SDS011;18905;42.668;23.364;2023-09-18T05:57:05;27.17;;;19.20;;
28625;SDS011;18905;42.668;23.364;2023-09-18T05:59:32;29.33;;;18.98;;
28625;SDS011;18905;42.668;23.364;2023-09-18T06:01:57;28.48;;;19.13;;
28625;SDS011;18905;42.668;23.364;2023-09-18T06:04:22;30.38;;;19.58;;
28625;SDS011;18905;42.668;23.364;2023-09-18T06:06:48;27.65;;;18.05;;
28625;SDS011;18905;42.668;23.364;2023-09-18T06:09:14;20.40;;;15.27;;
28625;SDS011;18905;42.668;23.364;2023-09-18T06:11:39;26.15;;;15.63;;
28625;SDS011;18905;42.668;23.364;2023-09-18T06:14:05;30.40;;;15.90;;
28625;SDS011;18905;42.668;23.364;2023-09-18T06:16:30;23.90;;;14.35;;
28625;SDS011;18905;42.668;23.364;2023-09-18T06:18:56;18.60;;;13.45;;
28625;SDS011;18905;42.668;23.364;2023-09-18T06:21:21;20.95;;;13.82;;
28625;SDS011;18905;42.668;23.364;2023-09-18T06:23:46;21.08;;;14.65;;
28625;SDS011;18905;42.668;23.364;2023-09-18T06:26:12;24.27;;;14.68;;
28625;SDS011;18905;42.668;23.364;2023-09-18T06:28:38;20.42;;;12.90;;
28625;SDS011;18905;42.668;23.364;2023-09-18T06:31:04;21.30;;;15.10;;
28625;SDS011;18905;42.668;23.364;2023-09-18T06:33:29;24.52;;;14.23;;
28625;SDS011;18905;42.668;23.364;2023-09-18T06:35:55;20.38;;;14.43;;
28625;SDS011;18905;42.668;23.364;2023-09-18T06:38:21;19.20;;;14.50;;
28625;SDS011;18905;42.668;23.364;2023-09-18T06:40:46;19.80;;;13.85;;
28625;SDS011;18905;42.668;23.364;2023-09-18T06:43:12;22.17;;;14.85;;
28625;SDS011;18905;42.668;23.364;2023-09-18T06:45:37;21.27;;;15.02;;
28625;SDS011;18905;42.668;23.364;2023-09-18T06:48:03;23.17;;;13.75;;
28625;SDS011;18905;42.668;23.364;2023-09-18T06:50:29;25.25;;;15.30;;
28625;SDS011;18905;42.668;23.364;2023-09-18T06:52:55;23.05;;;15.30;;
28625;SDS011;18905;42.668;23.364;2023-09-18T06:55:21;18.38;;;14.30;;
28625;SDS011;18905;42.668;23.364;2023-09-18T06:57:47;24.02;;;14.70;;
28625;SDS011;18905;42.668;23.364;2023-09-18T07:00:13;22.02;;;14.13;;
28625;SDS011;18905;42.668;23.364;2023-09-18T07:02:43;22.85;;;14.85;;
28625;SDS011;18905;42.668;23.364;2023-09-18T07:05:09;20.80;;;14.23;;
28625;SDS011;18905;42.668;23.364;2023-09-18T07:07:34;24.65;;;14.80;;
28625;SDS011;18905;42.668;23.364;2023-09-18T07:09:59;20.80;;;13.65;;
28625;SDS011;18905;42.668;23.364;2023-09-18T07:12:25;20.88;;;13.30;;
28625;SDS011;18905;42.668;23.364;2023-09-18T07:14:50;22.63;;;14.88;;
28625;SDS011;18905;42.668;23.364;2023-09-18T07:17:16;22.35;;;14.90;;
28625;SDS011;18905;42.668;23.364;2023-09-18T07:19:41;22.85;;;15.30;;
28625;SDS011;18905;42.668;23.364;2023-09-18T07:22:06;23.00;;;14.80;;
28625;SDS011;18905;42.668;23.364;2023-09-18T07:24:32;22.75;;;14.70;;
28625;SDS011;18905;42.668;23.364;2023-09-18T07:26:57;24.17;;;15.55;;
28625;SDS011;18905;42.668;23.364;2023-09-18T07:29:23;22.10;;;15.90;;
28625;SDS011;18905;42.668;23.364;2023-09-18T07:31:50;20.60;;;13.40;;
28625;SDS011;18905;42.668;23.364;2023-09-18T07:34:16;21.05;;;14.52;;
28625;SDS011;18905;42.668;23.364;2023-09-18T07:36:42;19.17;;;14.15;;
28625;SDS011;18905;42.668;23.364;2023-09-18T07:39:09;18.58;;;13.60;;
28625;SDS011;18905;42.668;23.364;2023-09-18T07:41:34;26.95;;;16.00;;
28625;SDS011;18905;42.668;23.364;2023-09-18T07:44:00;19.23;;;14.88;;
28625;SDS011;18905;42.668;23.364;2023-09-18T07:46:25;22.40;;;14.27;;
28625;SDS011;18905;42.668;23.364;2023-09-18T07:48:51;21.98;;;14.60;;
28625;SDS011;18905;42.668;23.364;2023-09-18T07:51:16;19.95;;;14.10;;
28625;SDS011;18905;42.668;23.364;2023-09-18T07:53:42;26.15;;;14.20;;
28625;SDS011;18905;42.668;23.364;2023-09-18T07:56:08;26.17;;;15.30;;
28625;SDS011;18905;42.668;23.364;2023-09-18T07:58:33;17.42;;;13.85;;
28625;SDS011;18905;42.668;23.364;2023-09-18T08:01:03;23.63;;;14.55;;
28625;SDS011;18905;42.668;23.364;2023-09-18T08:03:31;24.17;;;14.32;;
28625;SDS011;18905;42.668;23.364;2023-09-18T08:05:57;19.58;;;12.98;;
28625;SDS011;18905;42.668;23.364;2023-09-18T08:08:23;17.35;;;13.18;;
28625;SDS011;18905;42.668;23.364;2023-09-18T08:10:50;19.95;;;13.35;;
28625;SDS011;18905;42.668;23.364;2023-09-18T08:13:16;21.30;;;13.20;;
28625;SDS011;18905;42.668;23.364;2023-09-18T08:15:42;20.13;;;13.73;;
28625;SDS011;18905;42.668;23.364;2023-09-18T08:18:12;21.67;;;13.40;;
28625;SDS011;18905;42.668;23.364;2023-09-18T08:20:40;21.50;;;14.18;;
28625;SDS011;18905;42.668;23.364;2023-09-18T08:23:07;17.90;;;13.63;;
28625;SDS011;18905;42.668;23.364;2023-09-18T08:25:33;17.77;;;12.75;;
28625;SDS011;18905;42.668;23.364;2023-09-18T08:27:58;17.52;;;13.52;;
28625;SDS011;18905;42.668;23.364;2023-09-18T08:30:24;18.70;;;13.07;;
28625;SDS011;18905;42.668;23.364;2023-09-18T08:32:49;17.67;;;13.20;;
28625;SDS011;18905;42.668;23.364;2023-09-18T08:35:15;21.70;;;13.05;;
28625;SDS011;18905;42.668;23.364;2023-09-18T08:37:40;24.00;;;14.13;;
28625;SDS011;18905;42.668;23.364;2023-09-18T08:40:07;18.00;;;12.73;;
28625;SDS011;18905;42.668;23.364;2023-09-18T08:42:36;20.83;;;13.82;;
28625;SDS011;18905;42.668;23.364;2023-09-18T08:45:05;18.20;;;12.55;;
28625;SDS011;18905;42.668;23.364;2023-09-18T08:47:39;17.92;;;13.65;;
28625;SDS011;18905;42.668;23.364;2023-09-18T08:50:06;17.88;;;12.75;;
28625;SDS011;18905;42.668;23.364;2023-09-18T08:52:34;26.33;;;12.85;;
28625;SDS011;18905;42.668;23.364;2023-09-18T08:55:01;18.98;;;13.63;;
28625;SDS011;18905;42.668;23.364;2023-09-18T08:57:28;18.38;;;12.77;;
28625;SDS011;18905;42.668;23.364;2023-09-18T08:59:55;18.63;;;12.75;;
28625;SDS011;18905;42.668;23.364;2023-09-18T09:02:22;18.90;;;12.38;;
28625;SDS011;18905;42.668;23.364;2023-09-18T09:04:47;23.42;;;13.23;;
28625;SDS011;18905;42.668;23.364;2023-09-18T09:07:13;18.60;;;13.52;;
28625;SDS011;18905;42.668;23.364;2023-09-18T09:09:38;17.63;;;12.60;;
28625;SDS011;18905;42.668;23.364;2023-09-18T09:12:04;18.30;;;12.13;;
28625;SDS011;18905;42.668;23.364;2023-09-18T09:14:29;15.50;;;12.18;;
28625;SDS011;18905;42.668;23.364;2023-09-18T09:16:55;18.35;;;11.63;;
28625;SDS011;18905;42.668;23.364;2023-09-18T09:19:32;15.63;;;10.73;;
28625;SDS011;18905;42.668;23.364;2023-09-18T09:22:02;17.33;;;12.30;;
28625;SDS011;18905;42.668;23.364;2023-09-18T09:24:41;18.35;;;12.63;;
28625;SDS011;18905;42.668;23.364;2023-09-18T09:27:07;18.40;;;11.93;;
28625;SDS011;18905;42.668;23.364;2023-09-18T09:29:37;17.58;;;11.98;;
28625;SDS011;18905;42.668;23.364;2023-09-18T09:32:13;19.42;;;11.10;;
28625;SDS011;18905;42.668;23.364;2023-09-18T09:34:40;15.25;;;10.55;;
28625;SDS011;18905;42.668;23.364;2023-09-18T09:37:06;14.32;;;10.68;;
28625;SDS011;18905;42.668;23.364;2023-09-18T09:39:32;14.63;;;8.48;;
28625;SDS011;18905;42.668;23.364;2023-09-18T09:41:59;12.95;;;9.65;;
28625;SDS011;18905;42.668;23.364;2023-09-18T09:44:26;14.85;;;9.48;;
28625;SDS011;18905;42.668;23.364;2023-09-18T09:46:52;15.48;;;10.10;;
28625;SDS011;18905;42.668;23.364;2023-09-18T09:49:18;14.18;;;9.68;;
28625;SDS011;18905;42.668;23.364;2023-09-18T09:51:45;16.48;;;8.75;;
28625;SDS011;18905;42.668;23.364;2023-09-18T09:54:11;12.57;;;8.75;;
28625;SDS011;18905;42.668;23.364;2023-09-18T09:59:08;12.43;;;8.15;;
28625;SDS011;18905;42.668;23.364;2023-09-18T10:01:36;14.40;;;8.75;;
28625;SDS011;18905;42.668;23.364;2023-09-18T10:04:09;14.18;;;8.27;;
28625;SDS011;18905;42.668;23.364;2023-09-18T10:06:42;13.68;;;9.07;;
28625;SDS011;18905;42.668;23.364;2023-09-18T10:09:10;13.80;;;9.60;;
28625;SDS011;18905;42.668;23.364;2023-09-18T10:11:40;13.88;;;9.73;;
28625;SDS011;18905;42.668;23.364;2023-09-18T10:14:12;10.55;;;8.82;;
28625;SDS011;18905;42.668;23.364;2023-09-18T10:16:41;11.95;;;8.25;;
28625;SDS011;18905;42.668;23.364;2023-09-18T10:19:16;14.07;;;9.13;;
28625;SDS011;18905;42.668;23.364;2023-09-18T10:22:01;11.30;;;8.98;;
28625;SDS011;18905;42.668;23.364;2023-09-18T10:24:41;11.50;;;8.32;;
28625;SDS011;18905;42.668;23.364;2023-09-18T10:27:10;14.20;;;8.73;;
28625;SDS011;18905;42.668;23.364;2023-09-18T10:29:38;11.07;;;8.40;;
28625;SDS011;18905;42.668;23.364;2023-09-18T10:32:06;11.68;;;8.45;;
28625;SDS011;18905;42.668;23.364;2023-09-18T10:34:33;11.88;;;8.23;;
28625;SDS011;18905;42.668;23.364;2023-09-18T10:36:59;13.57;;;7.85;;
28625;SDS011;18905;42.668;23.364;2023-09-18T10:39:26;10.00;;;7.28;;
28625;SDS011;18905;42.668;23.364;2023-09-18T10:41:54;9.40;;;7.07;;
28625;SDS011;18905;42.668;23.364;2023-09-18T10:44:21;10.40;;;6.47;;
28625;SDS011;18905;42.668;23.364;2023-09-18T10:46:48;11.18;;;5.75;;
28625;SDS011;18905;42.668;23.364;2023-09-18T10:49:15;13.88;;;6.35;;
28625;SDS011;18905;42.668;23.364;2023-09-18T10:51:41;6.85;;;6.15;;
28625;SDS011;18905;42.668;23.364;2023-09-18T10:54:11;14.40;;;7.50;;
28625;SDS011;18905;42.668;23.364;2023-09-18T10:56:44;10.40;;;6.60;;
28625;SDS011;18905;42.668;23.364;2023-09-18T10:59:10;8.50;;;5.93;;
28625;SDS011;18905;42.668;23.364;2023-09-18T11:01:36;8.82;;;6.13;;
28625;SDS011;18905;42.668;23.364;2023-09-18T11:04:03;8.80;;;6.53;;
28625;SDS011;18905;42.668;23.364;2023-09-18T11:09:22;10.63;;;5.70;;
28625;SDS011;18905;42.668;23.364;2023-09-18T11:17:35;11.48;;;5.90;;
28625;SDS011;18905;42.668;23.364;2023-09-18T11:20:35;8.65;;;5.65;;
28625;SDS011;18905;42.668;23.364;2023-09-18T11:23:10;9.30;;;5.75;;
28625;SDS011;18905;42.668;23.364;2023-09-18T11:25:42;9.13;;;5.85;;
28625;SDS011;18905;42.668;23.364;2023-09-18T11:28:22;8.18;;;5.45;;
28625;SDS011;18905;42.668;23.364;2023-09-18T11:30:58;11.52;;;5.20;;
28625;SDS011;18905;42.668;23.364;2023-09-18T11:33:40;8.48;;;5.85;;
28625;SDS011;18905;42.668;23.364;2023-09-18T11:36:12;8.73;;;5.78;;
28625;SDS011;18905;42.668;23.364;2023-09-18T11:38:55;9.38;;;5.32;;
28625;SDS011;18905;42.668;23.364;2023-09-18T11:41:29;12.93;;;5.60;;
28625;SDS011;18905;42.668;23.364;2023-09-18T11:46:46;8.48;;;5.07;;
28625;SDS011;18905;42.668;23.364;2023-09-18T11:49:25;7.15;;;5.60;;
28625;SDS011;18905;42.668;23.364;2023-09-18T11:51:52;11.68;;;5.35;;
28625;SDS011;18905;42.668;23.364;2023-09-18T11:54:19;11.02;;;5.72;;
28625;SDS011;18905;42.668;23.364;2023-09-18T11:56:46;10.77;;;5.57;;
28625;SDS011;18905;42.668;23.364;2023-09-18T11:59:11;11.07;;;5.07;;
28625;SDS011;18905;42.668;23.364;2023-09-18T12:01:38;9.23;;;5.38;;
28625;SDS011;18905;42.668;23.364;2023-09-18T12:04:06;10.07;;;5.20;;
28625;SDS011;18905;42.668;23.364;2023-09-18T12:06:38;7.38;;;4.85;;
28625;SDS011;18905;42.668;23.364;2023-09-18T12:09:04;7.82;;;5.05;;
28625;SDS011;18905;42.668;23.364;2023-09-18T12:11:32;7.85;;;4.93;;
28625;SDS011;18905;42.668;23.364;2023-09-18T12:14:00;9.70;;;5.10;;
28625;SDS011;18905;42.668;23.364;2023-09-18T12:16:27;11.05;;;5.35;;
28625;SDS011;18905;42.668;23.364;2023-09-18T12:18:53;11.35;;;5.35;;
28625;SDS011;18905;42.668;23.364;2023-09-18T12:21:18;7.65;;;5.50;;
28625;SDS011;18905;42.668;23.364;2023-09-18T12:23:44;8.63;;;5.53;;
28625;SDS011;18905;42.668;23.364;2023-09-18T12:26:12;12.77;;;6.28;;
28625;SDS011;18905;42.668;23.364;2023-09-18T12:28:38;9.57;;;5.93;;
28625;SDS011;18905;42.668;23.364;2023-09-18T12:31:04;11.02;;;5.82;;
28625;SDS011;18905;42.668;23.364;2023-09-18T12:33:33;8.07;;;5.88;;
28625;SDS011;18905;42.668;23.364;2023-09-18T12:36:00;7.05;;;5.43;;
28625;SDS011;18905;42.668;23.364;2023-09-18T12:38:26;6.00;;;5.40;;
28625;SDS011;18905;42.668;23.364;2023-09-18T12:40:53;8.48;;;5.35;;
28625;SDS011;18905;42.668;23.364;2023-09-18T12:43:20;13.18;;;5.75;;
28625;SDS011;18905;42.668;23.364;2023-09-18T12:45:47;11.00;;;6.07;;
28625;SDS011;18905;42.668;23.364;2023-09-18T12:48:14;8.88;;;5.57;;
28625;SDS011;18905;42.668;23.364;2023-09-18T12:50:40;13.85;;;6.13;;
28625;SDS011;18905;42.668;23.364;2023-09-18T12:55:33;9.60;;;5.93;;
28625;SDS011;18905;42.668;23.364;2023-09-18T12:57:59;8.38;;;5.50;;
28625;SDS011;18905;42.668;23.364;2023-09-18T13:00:30;11.43;;;5.43;;
28625;SDS011;18905;42.668;23.364;2023-09-18T13:02:56;9.52;;;5.32;;
28625;SDS011;18905;42.668;23.364;2023-09-18T13:05:22;9.85;;;5.75;;
28625;SDS011;18905;42.668;23.364;2023-09-18T13:07:52;11.07;;;5.47;;
28625;SDS011;18905;42.668;23.364;2023-09-18T13:10:19;10.68;;;5.40;;
28625;SDS011;18905;42.668;23.364;2023-09-18T13:12:50;10.10;;;5.88;;
28625;SDS011;18905;42.668;23.364;2023-09-18T13:15:26;6.75;;;5.15;;
28625;SDS011;18905;42.668;23.364;2023-09-18T13:17:56;8.57;;;5.63;;
28625;SDS011;18905;42.668;23.364;2023-09-18T13:20:24;6.55;;;5.20;;
28625;SDS011;18905;42.668;23.364;2023-09-18T13:22:53;8.30;;;5.57;;
28625;SDS011;18905;42.668;23.364;2023-09-18T13:25:23;11.15;;;4.93;;
28625;SDS011;18905;42.668;23.364;2023-09-18T13:27:50;8.73;;;5.95;;
28625;SDS011;18905;42.668;23.364;2023-09-18T13:30:18;8.70;;;5.40;;
28625;SDS011;18905;42.668;23.364;2023-09-18T13:32:45;7.97;;;5.35;;
28625;SDS011;18905;42.668;23.364;2023-09-18T13:35:13;9.95;;;6.03;;
28625;SDS011;18905;42.668;23.364;2023-09-18T13:37:39;9.65;;;5.80;;
28625;SDS011;18905;42.668;23.364;2023-09-18T13:40:05;9.60;;;5.25;;
28625;SDS011;18905;42.668;23.364;2023-09-18T13:42:33;10.45;;;4.90;;
28625;SDS011;18905;42.668;23.364;2023-09-18T13:45:00;9.95;;;5.43;;
28625;SDS011;18905;42.668;23.364;2023-09-18T13:47:31;9.32;;;5.40;;
28625;SDS011;18905;42.668;23.364;2023-09-18T13:49:57;12.45;;;5.55;;
28625;SDS011;18905;42.668;23.364;2023-09-18T13:52:25;6.47;;;5.13;;
28625;SDS011;18905;42.668;23.364;2023-09-18T13:55:00;10.63;;;5.00;;
28625;SDS011;18905;42.668;23.364;2023-09-18T13:57:30;13.68;;;5.70;;
28625;SDS011;18905;42.668;23.364;2023-09-18T13:59:59;10.55;;;5.18;;
28625;SDS011;18905;42.668;23.364;2023-09-18T14:02:25;8.98;;;5.43;;
28625;SDS011;18905;42.668;23.364;2023-09-18T14:04:52;10.68;;;5.70;;
28625;SDS011;18905;42.668;23.364;2023-09-18T14:07:19;9.93;;;5.57;;
28625;SDS011;18905;42.668;23.364;2023-09-18T14:09:44;6.70;;;5.20;;
28625;SDS011;18905;42.668;23.364;2023-09-18T14:12:11;11.10;;;5.15;;
28625;SDS011;18905;42.668;23.364;2023-09-18T14:14:36;7.95;;;5.65;;
28625;SDS011;18905;42.668;23.364;2023-09-18T14:17:03;12.55;;;5.43;;
28625;SDS011;18905;42.668;23.364;2023-09-18T14:19:28;8.05;;;5.60;;
28625;SDS011;18905;42.668;23.364;2023-09-18T14:21:54;12.07;;;5.55;;
28625;SDS011;18905;42.668;23.364;2023-09-18T14:24:19;7.88;;;5.03;;
28625;SDS011;18905;42.668;23.364;2023-09-18T14:26:49;8.68;;;5.50;;
28625;SDS011;18905;42.668;23.364;2023-09-18T14:29:15;8.27;;;5.50;;
28625;SDS011;18905;42.668;23.364;2023-09-18T14:31:40;8.32;;;5.40;;